Time;durP1;ratioP1;P1;durP2;ratioP2;P2;SDS_P1;SDS_P2;PMS_P1;PMS_P2;Temp;Humidity;BMP_temperature;BMP_pressure;BME280_temperature;BME280_humidity;BME280_pressure;Samples;Min_cycle;Max_cycle;Signal;HPM_P1;HPM_P2
2022/06/28 02:49:30;;;;;;;2.70;2.50;;;16.10;99.90;;;;;;5023460;23;20495;-95
2022/06/28 02:51:55;;;;;;;2.77;2.27;;;17.40;99.90;;;;;;5022939;28;20447;-96
2022/06/28 05:27:20;;;;;;;3.93;3.63;;;16.80;99.90;;;;;;4950982;28;20533;-94
2022/06/28 05:29:48;;;;;;;3.80;3.50;;;16.80;99.90;;;;;;4955264;28;20473;-93
2022/06/28 05:35:18;;;;;;;6.13;3.90;;;17.00;99.90;;;;;;4936363;28;20316;-95
2022/06/28 05:37:45;;;;;;;4.10;3.80;;;17.00;99.90;;;;;;4956026;28;20442;-93
2022/06/28 05:40:11;;;;;;;4.53;4.17;;;17.00;99.90;;;;;;4941440;28;20541;-94
2022/06/28 05:42:37;;;;;;;4.77;4.37;;;17.10;99.90;;;;;;4935866;28;20597;-94
2022/06/28 05:45:02;;;;;;;5.20;4.70;;;17.00;99.90;;;;;;4936480;28;20446;-95
2022/06/28 05:47:28;;;;;;;6.40;5.87;;;17.30;99.90;;;;;;4936102;28;20690;-94
2022/06/28 05:50:02;;;;;;;5.80;5.17;;;17.60;99.90;;;;;;4935548;28;20191;-96
2022/06/28 05:52:40;;;;;;;6.67;6.17;;;17.70;99.90;;;;;;4948801;28;20715;-95
2022/06/28 05:55:06;;;;;;;6.80;6.23;;;18.40;99.90;;;;;;4943183;28;20458;-94
2022/06/28 05:57:38;;;;;;;8.57;7.87;;;18.10;99.90;;;;;;4932554;28;20785;-94
2022/06/28 06:00:04;;;;;;;8.53;7.80;;;18.20;99.90;;;;;;4936029;28;20604;-96
2022/06/28 06:02:30;;;;;;;7.73;6.93;;;17.90;99.90;;;;;;4948894;28;20454;-93
2022/06/28 06:04:59;;;;;;;9.63;8.63;;;17.60;99.90;;;;;;4956787;28;20447;-94
2022/06/28 06:07:25;;;;;;;9.80;8.43;;;17.40;99.90;;;;;;4935929;28;20656;-94
2022/06/28 06:09:53;;;;;;;8.47;7.70;;;17.50;99.90;;;;;;4957401;28;20450;-95
2022/06/28 06:12:21;;;;;;;9.00;8.10;;;17.50;99.90;;;;;;4942666;28;20493;-95
2022/06/28 06:14:46;;;;;;;8.80;7.97;;;17.40;99.90;;;;;;4965588;28;20517;-93
2022/06/28 06:17:15;;;;;;;10.00;9.23;;;18.60;99.90;;;;;;4937019;28;20505;-95
2022/06/28 06:19:41;;;;;;;8.70;7.90;;;18.20;99.90;;;;;;4937842;28;20191;-94
2022/06/28 06:22:10;;;;;;;8.80;8.00;;;18.10;99.90;;;;;;4949758;28;20719;-93
2022/06/28 06:24:38;;;;;;;9.40;8.67;;;18.40;99.90;;;;;;4934193;28;20178;-95
2022/06/28 06:27:05;;;;;;;10.10;9.20;;;18.40;99.90;;;;;;4953968;28;20451;-96
2022/06/28 06:29:32;;;;;;;9.90;9.10;;;18.50;99.90;;;;;;4950103;28;20434;-96
2022/06/28 06:31:58;;;;;;;10.73;9.47;;;18.50;99.90;;;;;;4951455;28;20474;-96
2022/06/28 06:34:24;;;;;;;9.90;9.00;;;18.40;99.90;;;;;;4974659;28;20446;-95
2022/06/28 06:36:56;;;;;;;11.50;8.90;;;19.30;99.90;;;;;;4957718;28;20203;-96
2022/06/28 06:39:22;;;;;;;10.60;9.70;;;19.00;99.90;;;;;;4960096;28;20450;-94
2022/06/28 06:41:56;;;;;;;9.23;8.53;;;20.30;99.90;;;;;;4944788;28;20468;-94
2022/06/28 06:44:22;;;;;;;9.33;8.63;;;19.80;99.90;;;;;;4927636;29;20964;-96
2022/06/28 06:46:48;;;;;;;11.40;9.73;;;20.50;99.90;;;;;;4952903;28;20191;-95
2022/06/28 06:49:14;;;;;;;9.10;8.37;;;19.90;99.90;;;;;;4962173;28;20289;-96
2022/06/28 06:52:26;;;;;;;10.33;9.43;;;19.40;99.90;;;;;;4939380;28;20226;-96
2022/06/28 07:18:11;;;;;;;10.53;9.73;;;17.70;99.90;;;;;;4942942;28;20502;-95
2022/06/28 08:12:25;;;;;;;9.00;8.40;;;19.30;99.90;;;;;;4962913;28;20510;-95
2022/06/28 08:14:51;;;;;;;9.37;8.70;;;19.90;99.90;;;;;;4967507;28;20453;-94
2022/06/28 08:17:18;;;;;;;8.23;7.63;;;19.30;99.90;;;;;;4959196;28;20441;-92
2022/06/28 08:22:31;;;;;;;9.53;8.83;;;20.30;99.90;;;;;;5023268;23;20736;-95
2022/06/28 08:24:56;;;;;;;10.27;9.43;;;20.60;99.90;;;;;;5008862;28;20976;-96
2022/06/28 08:27:22;;;;;;;7.57;7.07;;;19.80;99.90;;;;;;4998921;28;20778;-95
2022/06/28 08:29:50;;;;;;;8.23;7.63;;;21.20;99.90;;;;;;5007105;28;20185;-95
2022/06/28 08:32:20;;;;;;;9.63;8.90;;;21.00;99.90;;;;;;5000081;28;20298;-95
2022/06/28 08:34:46;;;;;;;8.90;8.20;;;21.50;99.90;;;;;;4999519;28;20439;-93
2022/06/28 08:37:12;;;;;;;7.90;7.20;;;20.40;99.90;;;;;;4992610;28;20451;-94
2022/06/28 08:39:38;;;;;;;7.23;6.70;;;20.60;99.90;;;;;;4982375;28;20748;-92
2022/06/28 08:42:15;;;;;;;6.53;6.00;;;20.50;99.90;;;;;;4992516;28;20451;-91
2022/06/28 08:44:41;;;;;;;7.20;6.60;;;20.80;99.90;;;;;;4991579;28;20451;-95
2022/06/28 08:47:10;;;;;;;7.73;6.90;;;21.20;99.90;;;;;;4998139;28;21254;-93
2022/06/28 08:49:56;;;;;;;6.97;6.37;;;21.30;99.90;;;;;;5007203;28;20432;-95
2022/06/28 08:52:22;;;;;;;9.03;6.90;;;21.60;99.90;;;;;;5004646;28;21012;-96
2022/06/28 08:54:50;;;;;;;7.43;6.93;;;21.40;99.90;;;;;;4994655;28;20443;-94
2022/06/28 08:57:20;;;;;;;6.63;6.20;;;21.30;99.90;;;;;;4997770;28;20447;-96
2022/06/28 08:59:47;;;;;;;7.17;6.57;;;21.30;99.90;;;;;;4989138;28;20527;-94
2022/06/28 09:02:17;;;;;;;7.10;6.47;;;21.60;99.90;;;;;;4998010;28;20614;-93
2022/06/28 09:04:49;;;;;;;7.17;6.67;;;21.40;99.90;;;;;;4979350;28;20518;-93
2022/06/28 09:07:15;;;;;;;6.63;6.13;;;21.40;99.90;;;;;;4992627;28;21213;-94
2022/06/28 09:09:40;;;;;;;7.00;6.50;;;21.40;99.90;;;;;;4986626;28;20518;-93
2022/06/28 09:16:18;;;;;;;8.70;8.03;;;21.40;99.90;;;;;;5012026;28;20593;-96
2022/06/28 09:18:58;;;;;;;7.00;6.47;;;21.70;99.90;;;;;;4997776;28;20498;-95
2022/06/28 09:21:24;;;;;;;6.30;5.90;;;21.80;99.90;;;;;;4997174;28;20647;-95
2022/06/28 09:24:00;;;;;;;6.30;5.90;;;22.10;99.90;;;;;;4998365;28;20539;-95
2022/06/28 09:26:26;;;;;;;18.50;17.10;;;22.80;99.90;;;;;;4999656;28;20184;-93
2022/06/28 09:28:52;;;;;;;6.67;6.17;;;22.30;99.90;;;;;;4996403;28;20440;-93
2022/06/28 09:31:29;;;;;;;5.37;5.07;;;22.30;99.90;;;;;;5000231;28;20720;-94
2022/06/28 09:34:18;;;;;;;4.80;4.50;;;22.60;99.90;;;;;;4994102;28;20479;-94
2022/06/28 09:37:00;;;;;;;5.40;5.00;;;22.50;99.90;;;;;;4992949;28;20998;-95
2022/06/28 09:39:36;;;;;;;5.00;4.67;;;22.50;99.90;;;;;;5002892;28;20435;-95
2022/06/28 09:42:12;;;;;;;7.10;6.60;;;21.80;99.90;;;;;;5024682;28;20446;-96
2022/06/28 09:44:42;;;;;;;8.47;7.83;;;22.30;99.90;;;;;;5019268;28;20432;-96
2022/06/28 09:47:12;;;;;;;8.23;7.43;;;22.70;99.90;;;;;;5000939;28;20444;-96
2022/06/28 09:49:37;;;;;;;5.03;4.73;;;23.10;99.90;;;;;;5002868;28;20436;-95
2022/06/28 09:52:03;;;;;;;5.60;5.23;;;22.40;99.90;;;;;;4997592;28;20479;-95
2022/06/28 09:54:29;;;;;;;4.80;4.47;;;22.50;99.90;;;;;;4992897;28;20177;-95
2022/06/28 09:56:56;;;;;;;5.27;4.77;;;22.70;99.90;;;;;;4999494;28;20189;-94
2022/06/28 09:59:37;;;;;;;4.97;4.53;;;22.80;99.90;;;;;;5005184;28;20260;-96
2022/06/28 10:25:33;;;;;;;4.00;3.80;;;23.10;99.90;;;;;;4976828;28;20470;-94
2022/06/28 10:28:26;;;;;;;4.70;4.30;;;23.10;99.90;;;;;;4968328;28;20457;-96
2022/06/28 10:31:28;;;;;;;4.27;3.97;;;22.90;99.90;;;;;;4980488;28;20270;-96
2022/06/28 10:34:02;;;;;;;6.47;4.00;;;23.40;99.90;;;;;;4981550;28;20533;-95
2022/06/28 10:36:39;;;;;;;3.43;3.20;;;23.20;99.90;;;;;;4983961;28;20453;-96
2022/06/28 10:39:20;;;;;;;4.07;3.77;;;23.30;99.90;;;;;;4970660;28;20456;-96
2022/06/28 10:41:47;;;;;;;4.03;3.70;;;23.40;99.90;;;;;;4959367;28;20540;-91
2022/06/28 10:44:27;;;;;;;3.80;3.50;;;22.90;99.90;;;;;;4978160;28;20422;-96
2022/06/28 10:47:01;;;;;;;4.00;3.80;;;23.20;99.90;;;;;;4954222;28;20533;-95
2022/06/28 10:49:42;;;;;;;4.27;3.40;;;23.50;99.90;;;;;;4984063;28;20433;-96
2022/06/28 10:56:14;;;;;;;3.40;3.10;;;24.30;99.90;;;;;;4991031;28;20448;-93
2022/06/28 10:58:57;;;;;;;3.70;3.40;;;24.50;99.90;;;;;;4996564;28;20546;-94
2022/06/28 11:01:44;;;;;;;3.40;3.20;;;24.20;99.90;;;;;;4994556;28;20454;-96
2022/06/28 11:04:23;;;;;;;3.03;2.90;;;23.90;99.90;;;;;;4997843;28;20482;-92
2022/06/28 11:07:05;;;;;;;3.10;2.90;;;24.00;99.90;;;;;;4993985;28;20433;-96
2022/06/28 11:09:53;;;;;;;3.00;2.90;;;24.20;99.90;;;;;;4995836;28;20436;-95
2022/06/28 11:12:28;;;;;;;3.30;3.00;;;23.90;99.90;;;;;;4996694;28;20475;-94
2022/06/28 11:14:58;;;;;;;3.23;3.03;;;24.00;99.90;;;;;;4991752;28;21097;-95
2022/06/28 11:17:32;;;;;;;3.00;2.80;;;23.90;99.90;;;;;;4988145;28;20452;-95
2022/06/28 11:20:02;;;;;;;2.73;2.53;;;23.50;99.90;;;;;;5004248;28;20507;-95
2022/06/28 11:22:30;;;;;;;3.00;2.90;;;23.60;99.90;;;;;;4987797;28;20531;-91
2022/06/28 11:24:58;;;;;;;3.40;3.20;;;23.50;99.90;;;;;;4982729;28;20505;-92
2022/06/28 11:27:25;;;;;;;4.50;3.03;;;23.60;99.90;;;;;;4986266;28;21368;-93
2022/06/28 11:29:59;;;;;;;3.40;3.03;;;24.00;99.90;;;;;;4986207;28;20472;-93
2022/06/28 11:32:29;;;;;;;3.10;2.90;;;23.80;99.90;;;;;;5005173;28;20489;-95
2022/06/28 11:52:57;;;;;;;3.10;2.80;;;23.10;99.90;;;;;;5679942;23;20992;-90
2022/06/28 11:55:40;;;;;;;3.37;3.00;;;23.30;99.90;;;;;;4939776;28;20477;-94
2022/06/28 11:58:26;;;;;;;3.53;2.87;;;23.70;99.90;;;;;;4937848;28;20289;-92
2022/06/28 12:01:14;;;;;;;2.87;2.77;;;23.90;99.90;;;;;;4944672;28;20541;-95
2022/06/28 12:03:42;;;;;;;2.47;2.37;;;24.20;99.90;;;;;;4957833;28;20465;-96
2022/06/28 12:06:09;;;;;;;2.70;2.60;;;24.60;99.90;;;;;;4969210;28;20975;-96
2022/06/28 12:08:51;;;;;;;3.03;2.83;;;24.60;99.90;;;;;;4956555;28;21024;-94
2022/06/28 12:11:33;;;;;;;2.77;2.50;;;24.10;99.90;;;;;;4961138;28;20663;-95
2022/06/28 12:14:02;;;;;;;2.90;2.80;;;24.00;99.90;;;;;;4952195;28;20446;-94
2022/06/28 12:16:32;;;;;;;3.10;2.90;;;24.00;99.90;;;;;;4938561;28;20519;-94
2022/06/28 12:18:59;;;;;;;2.50;2.33;;;24.50;99.90;;;;;;4936687;28;20697;-93
2022/06/28 12:21:26;;;;;;;2.80;2.70;;;24.70;99.90;;;;;;4935191;28;20504;-95
2022/06/28 12:23:56;;;;;;;2.57;2.47;;;25.00;99.90;;;;;;4945540;28;20455;-94
2022/06/28 12:26:43;;;;;;;2.60;2.40;;;24.80;99.90;;;;;;4932446;28;20513;-92
2022/06/28 12:29:13;;;;;;;2.30;2.20;;;24.30;99.90;;;;;;4947034;28;20445;-91
2022/06/28 12:31:43;;;;;;;3.13;2.60;;;24.20;99.90;;;;;;4934289;28;20485;-91
2022/06/28 12:34:10;;;;;;;2.43;2.33;;;24.50;99.90;;;;;;4936014;28;20433;-92
2022/06/28 12:36:35;;;;;;;2.43;2.33;;;24.50;99.90;;;;;;4937680;28;20509;-92
2022/06/28 12:39:02;;;;;;;2.80;2.60;;;24.70;99.90;;;;;;4934193;28;20448;-91
2022/06/28 12:41:28;;;;;;;2.10;2.00;;;24.60;99.90;;;;;;4933415;28;20218;-92
2022/06/28 12:43:53;;;;;;;3.70;2.00;;;24.30;99.90;;;;;;4936331;28;20497;-92
2022/06/28 12:46:19;;;;;;;2.60;2.40;;;24.30;99.90;;;;;;4937184;28;20194;-93
2022/06/28 12:48:44;;;;;;;2.40;2.30;;;24.10;99.90;;;;;;4937358;28;20669;-91
2022/06/28 12:51:10;;;;;;;3.67;2.50;;;24.50;99.90;;;;;;4954695;28;20229;-89
2022/06/28 12:53:35;;;;;;;2.53;2.17;;;24.30;99.90;;;;;;4952903;28;20487;-91
2022/06/28 12:56:01;;;;;;;2.30;2.20;;;24.10;99.90;;;;;;4966569;28;20183;-92
2022/06/28 12:58:26;;;;;;;2.37;2.27;;;24.40;99.90;;;;;;4944446;28;20552;-90
2022/06/28 13:00:52;;;;;;;2.60;2.40;;;24.10;99.90;;;;;;4950182;28;20191;-91
2022/06/28 13:03:17;;;;;;;2.30;2.20;;;24.20;99.90;;;;;;4938500;28;20701;-92
2022/06/28 13:05:44;;;;;;;2.67;2.53;;;24.60;99.90;;;;;;4934739;28;20197;-91
2022/06/28 13:08:11;;;;;;;1.90;1.80;;;24.80;99.90;;;;;;4930645;28;20191;-94
2022/06/28 13:10:37;;;;;;;2.10;2.00;;;24.90;99.90;;;;;;4935006;28;21024;-92
2022/06/28 13:13:06;;;;;;;2.03;1.93;;;25.60;99.90;;;;;;4936738;28;20795;-92
2022/06/28 13:15:34;;;;;;;1.90;1.80;;;25.40;99.90;;;;;;4933150;28;20537;-94
2022/06/28 13:18:00;;;;;;;2.23;1.73;;;24.90;99.90;;;;;;4959674;28;20875;-93
2022/06/28 13:20:26;;;;;;;2.80;2.10;;;24.40;99.90;;;;;;4931791;28;21085;-94
2022/06/28 13:22:51;;;;;;;2.27;2.07;;;23.90;99.90;;;;;;4937418;28;20214;-92
2022/06/28 13:25:17;;;;;;;2.33;2.13;;;23.90;99.90;;;;;;4939174;28;20187;-91
2022/06/28 13:28:08;;;;;;;2.97;2.77;;;24.20;99.90;;;;;;4941817;28;20587;-92
2022/06/28 13:30:38;;;;;;;2.70;2.50;;;24.40;99.90;;;;;;4937114;28;20450;-90
2022/06/28 13:33:04;;;;;;;2.23;2.03;;;24.80;99.90;;;;;;4937646;28;20443;-91
2022/06/28 13:35:30;;;;;;;2.33;2.20;;;25.80;99.90;;;;;;4940645;28;20446;-92
2022/06/28 13:37:56;;;;;;;2.37;2.17;;;26.40;99.90;;;;;;4939002;28;20456;-94
2022/06/28 13:40:22;;;;;;;2.57;2.13;;;26.60;99.90;;;;;;4938145;28;20443;-93
2022/06/28 13:42:48;;;;;;;2.27;2.07;;;26.30;99.90;;;;;;4943073;28;20596;-93
2022/06/28 13:45:14;;;;;;;1.83;1.70;;;26.10;99.90;;;;;;4941484;28;20242;-93
2022/06/28 13:47:40;;;;;;;1.93;1.80;;;25.80;99.90;;;;;;4934971;28;20502;-92
2022/06/28 13:50:06;;;;;;;1.90;1.80;;;25.30;99.90;;;;;;4936661;28;20541;-92
2022/06/28 13:52:32;;;;;;;2.27;2.17;;;24.80;99.90;;;;;;4951719;28;20238;-92
2022/06/28 13:54:57;;;;;;;2.80;1.80;;;24.90;99.90;;;;;;4935672;28;20927;-91
2022/06/28 13:57:25;;;;;;;2.40;2.20;;;24.70;99.90;;;;;;4939170;28;20188;-90
2022/06/28 13:59:51;;;;;;;1.90;1.80;;;24.60;99.90;;;;;;4930250;28;20541;-92
2022/06/28 14:02:17;;;;;;;2.47;1.97;;;25.00;99.90;;;;;;4937399;28;20474;-92
2022/06/28 14:04:43;;;;;;;2.30;1.70;;;25.00;99.90;;;;;;4937844;28;20863;-92
2022/06/28 14:07:08;;;;;;;1.83;1.70;;;25.40;99.90;;;;;;4954937;28;20911;-92
2022/06/28 14:09:34;;;;;;;1.73;1.63;;;26.10;99.90;;;;;;4937985;28;20598;-92
2022/06/28 14:11:59;;;;;;;2.47;2.27;;;26.10;99.90;;;;;;4938775;28;20195;-92
2022/06/28 14:14:25;;;;;;;2.40;1.80;;;25.60;99.90;;;;;;4935080;28;20192;-92
2022/06/28 14:16:50;;;;;;;2.20;2.10;;;25.30;99.90;;;;;;4936249;28;20194;-92
2022/06/28 14:19:16;;;;;;;2.17;2.00;;;24.50;99.90;;;;;;4938325;28;20202;-92
2022/06/28 14:21:42;;;;;;;2.07;1.97;;;24.30;99.90;;;;;;4939028;28;20211;-91
2022/06/28 14:24:07;;;;;;;2.90;2.00;;;23.90;99.90;;;;;;4933961;28;20199;-92
2022/06/28 14:26:33;;;;;;;3.17;1.80;;;23.70;99.90;;;;;;4949916;28;20194;-93
2022/06/28 14:29:31;;;;;;;2.00;1.90;;;23.70;99.90;;;;;;4939880;28;20187;-93
2022/06/28 14:32:06;;;;;;;2.20;2.00;;;24.00;99.90;;;;;;4954849;28;20450;-89
2022/06/28 14:34:32;;;;;;;2.07;1.90;;;24.20;99.90;;;;;;4934509;28;20477;-90
2022/06/28 14:37:17;;;;;;;2.27;2.10;;;24.20;99.90;;;;;;4932578;28;20451;-91
2022/06/28 14:39:43;;;;;;;2.30;2.10;;;24.50;99.90;;;;;;4936613;28;20186;-92
2022/06/28 14:42:09;;;;;;;2.30;2.10;;;24.80;99.90;;;;;;4939024;28;20493;-91
2022/06/28 14:44:34;;;;;;;4.03;2.20;;;25.00;99.90;;;;;;4938339;28;20277;-92
2022/06/28 14:47:00;;;;;;;2.30;2.20;;;24.90;99.90;;;;;;4914794;28;20211;-93
2022/06/28 14:49:26;;;;;;;2.37;2.27;;;24.80;99.90;;;;;;4935256;28;20206;-92
2022/06/28 14:51:52;;;;;;;2.70;2.20;;;25.00;99.90;;;;;;4933635;28;20587;-91
2022/06/28 14:54:18;;;;;;;2.03;1.93;;;25.00;99.90;;;;;;4922076;28;20281;-91
2022/06/28 14:56:44;;;;;;;2.20;2.00;;;24.60;99.90;;;;;;4935940;28;20397;-91
2022/06/28 14:59:10;;;;;;;2.40;2.20;;;24.60;99.90;;;;;;4936246;28;20437;-93
2022/06/28 15:01:35;;;;;;;2.23;2.10;;;24.80;99.90;;;;;;4935031;28;20493;-92
2022/06/28 15:04:01;;;;;;;3.10;2.40;;;24.90;99.90;;;;;;4947857;28;20270;-93
2022/06/28 15:06:28;;;;;;;2.20;2.10;;;24.90;99.90;;;;;;4930471;28;20195;-93
2022/06/28 15:09:38;;;;;;;3.23;2.20;;;25.10;99.90;;;;;;4933150;28;20179;-92
2022/06/28 15:12:14;;;;;;;2.33;2.20;;;25.20;99.90;;;;;;4949109;28;20538;-93
2022/06/28 15:17:47;;;;;;;2.50;2.40;;;24.40;99.90;;;;;;5033349;23;20491;-96
2022/06/28 15:20:30;;;;;;;4.20;3.90;;;24.40;99.90;;;;;;5012566;28;20510;-96
2022/06/28 15:31:11;;;;;;;2.20;2.10;;;24.30;99.90;;;;;;5023452;28;20438;-96
2022/06/28 15:33:39;;;;;;;2.60;2.43;;;24.10;99.90;;;;;;5020097;28;20495;-96
2022/06/28 15:36:05;;;;;;;3.93;3.03;;;24.60;99.90;;;;;;5017497;28;20463;-95
2022/06/28 15:38:37;;;;;;;4.00;2.70;;;24.50;99.90;;;;;;5018186;28;20479;-96
2022/06/28 15:41:04;;;;;;;3.17;2.97;;;24.30;99.90;;;;;;5020950;28;20190;-96
2022/06/28 15:43:32;;;;;;;2.93;2.73;;;24.00;99.90;;;;;;5038443;28;20427;-96
2022/06/28 15:46:11;;;;;;;3.37;2.37;;;24.10;99.90;;;;;;5172171;23;20513;-96
2022/06/28 15:48:36;;;;;;;2.30;2.20;;;23.90;99.90;;;;;;4978299;28;20474;-96
2022/06/28 15:51:02;;;;;;;2.67;2.57;;;24.00;99.90;;;;;;4992026;28;20478;-96
2022/06/28 15:53:28;;;;;;;3.10;2.40;;;23.90;99.90;;;;;;4979421;28;20190;-96
2022/06/28 15:55:53;;;;;;;2.63;2.43;;;23.80;99.90;;;;;;4978532;28;20197;-96
2022/06/28 15:58:31;;;;;;;6.27;5.87;;;23.80;99.90;;;;;;5127738;23;20228;-96
2022/06/28 16:03:41;;;;;;;2.80;2.70;;;23.70;99.90;;;;;;5125180;23;20495;-96
2022/06/28 16:11:28;;;;;;;2.57;2.47;;;23.50;99.90;;;;;;5152632;23;20566;-96
2022/06/28 16:13:55;;;;;;;2.60;2.40;;;23.50;99.90;;;;;;5015973;28;20452;-95
2022/06/28 16:16:21;;;;;;;4.90;2.50;;;23.50;99.90;;;;;;5011636;28;20188;-96
2022/06/28 16:18:50;;;;;;;3.77;2.97;;;23.70;99.90;;;;;;5017603;28;20450;-96
2022/06/28 16:21:44;;;;;;;2.73;2.53;;;23.30;99.90;;;;;;5028467;28;20468;-96
2022/06/28 16:24:11;;;;;;;5.17;4.87;;;23.60;99.90;;;;;;5065978;23;20485;-96
2022/06/28 16:26:42;;;;;;;3.40;3.20;;;23.20;99.90;;;;;;5094003;23;20491;-96
2022/06/28 16:29:13;;;;;;;3.80;3.50;;;23.10;99.90;;;;;;5014507;28;20432;-96
2022/06/28 16:32:02;;;;;;;4.83;4.53;;;23.90;99.90;;;;;;5025134;28;20523;-96
2022/06/28 16:34:39;;;;;;;3.43;3.13;;;22.30;99.90;;;;;;5017670;28;20441;-94
2022/06/28 16:37:07;;;;;;;2.80;2.43;;;23.60;99.90;;;;;;5017317;28;20436;-96
2022/06/28 16:39:32;;;;;;;3.40;3.10;;;23.10;99.90;;;;;;5015878;28;20456;-96
2022/06/28 16:42:00;;;;;;;2.83;2.63;;;23.90;99.90;;;;;;5013750;28;21052;-96
2022/06/28 16:44:25;;;;;;;3.23;2.97;;;24.10;99.90;;;;;;5016149;28;20216;-96
2022/06/28 16:46:54;;;;;;;4.10;3.70;;;22.80;99.90;;;;;;5009088;28;20450;-96
2022/06/28 16:49:20;;;;;;;3.23;3.03;;;24.00;99.90;;;;;;5022264;28;20424;-96
2022/06/28 16:52:03;;;;;;;3.33;3.13;;;24.10;99.90;;;;;;5015600;28;20189;-96
2022/06/28 16:54:29;;;;;;;3.70;3.40;;;24.00;99.90;;;;;;5016020;28;21014;-95
2022/06/28 16:56:56;;;;;;;3.20;3.00;;;24.10;99.90;;;;;;5009251;28;20482;-96
2022/06/28 16:59:24;;;;;;;3.60;3.40;;;24.10;99.90;;;;;;5011431;28;20474;-96
2022/06/28 17:01:50;;;;;;;4.00;3.70;;;23.40;99.90;;;;;;5020898;28;20514;-96
2022/06/28 17:09:43;;;;;;;3.73;3.53;;;24.20;99.90;;;;;;4961145;28;20461;-92
2022/06/28 17:12:09;;;;;;;3.80;3.60;;;24.40;99.90;;;;;;4946588;28;20446;-93
2022/06/28 17:14:39;;;;;;;4.30;4.07;;;24.00;99.90;;;;;;4945341;28;20782;-93
2022/06/28 17:17:05;;;;;;;3.90;3.60;;;24.50;99.90;;;;;;4950911;28;20469;-92
2022/06/28 17:19:45;;;;;;;7.07;4.00;;;25.30;99.90;;;;;;4948022;28;20434;-91
2022/06/28 17:22:29;;;;;;;3.97;3.70;;;26.40;99.90;;;;;;4950919;28;20317;-92
2022/06/28 17:24:55;;;;;;;4.07;3.77;;;28.00;99.90;;;;;;4952011;28;20439;-94
2022/06/28 17:27:20;;;;;;;3.40;3.20;;;30.50;96.70;;;;;;4954935;28;20947;-94
2022/06/28 17:29:51;;;;;;;3.60;3.30;;;31.00;94.80;;;;;;4951579;28;20517;-93
2022/06/28 17:32:31;;;;;;;3.50;3.20;;;31.60;92.90;;;;;;4944297;28;20186;-93
2022/06/28 17:34:59;;;;;;;3.40;3.20;;;32.60;91.70;;;;;;4944937;28;20860;-91
2022/06/28 17:37:46;;;;;;;3.63;3.43;;;32.40;90.60;;;;;;4951165;28;21514;-92
2022/06/28 17:40:20;;;;;;;4.27;3.87;;;31.10;90.90;;;;;;4948873;28;20438;-90
2022/06/28 17:42:46;;;;;;;7.77;7.27;;;29.30;93.40;;;;;;4952520;28;20473;-90
2022/06/28 17:45:18;;;;;;;5.80;5.37;;;27.90;95.20;;;;;;4954916;28;20954;-90
2022/06/28 17:47:46;;;;;;;4.00;3.80;;;26.50;96.80;;;;;;4954179;28;20218;-91
2022/06/28 17:50:14;;;;;;;4.43;4.03;;;25.50;98.30;;;;;;4956854;28;20447;-93
2022/06/28 17:52:40;;;;;;;4.10;3.80;;;24.80;99.90;;;;;;4961549;28;20446;-92
2022/06/28 17:55:06;;;;;;;4.93;4.63;;;24.20;99.90;;;;;;4954200;28;20455;-93
2022/06/28 17:57:32;;;;;;;3.90;3.70;;;23.90;99.90;;;;;;4949696;28;20214;-94
2022/06/28 18:00:04;;;;;;;4.73;4.50;;;23.70;99.90;;;;;;4956855;28;20521;-95
2022/06/28 18:03:05;;;;;;;4.77;4.47;;;23.20;99.90;;;;;;4953184;28;20486;-94
2022/06/28 18:05:31;;;;;;;4.77;4.47;;;22.80;99.90;;;;;;4952338;28;20541;-94
2022/06/28 18:08:00;;;;;;;5.20;4.70;;;23.30;99.90;;;;;;4952099;28;20474;-94
2022/06/28 18:10:26;;;;;;;5.00;4.60;;;23.00;99.90;;;;;;4955993;28;20520;-93
2022/06/28 18:12:51;;;;;;;5.30;4.90;;;22.60;99.90;;;;;;4950157;28;20526;-92
2022/06/28 18:15:17;;;;;;;4.73;4.43;;;22.40;99.90;;;;;;4948043;28;20234;-92
2022/06/28 18:18:03;;;;;;;5.30;5.00;;;22.50;99.90;;;;;;4951124;28;20240;-89
2022/06/28 18:20:30;;;;;;;5.83;5.30;;;22.40;99.90;;;;;;4972352;28;20199;-90
2022/06/28 18:22:58;;;;;;;5.50;5.20;;;22.20;99.90;;;;;;4956090;28;20486;-90
2022/06/28 18:25:23;;;;;;;5.37;4.63;;;22.30;99.90;;;;;;4954219;28;20530;-91
2022/06/28 18:27:49;;;;;;;5.40;5.10;;;22.00;99.90;;;;;;4961963;28;20483;-92
2022/06/28 18:30:27;;;;;;;5.60;5.20;;;22.00;99.90;;;;;;4962803;28;20259;-93
2022/06/28 18:32:58;;;;;;;6.20;5.80;;;22.10;99.90;;;;;;4963037;28;20182;-93
2022/06/28 18:35:40;;;;;;;5.97;5.67;;;22.00;99.90;;;;;;4964638;29;20446;-91
2022/06/28 18:38:26;;;;;;;6.77;6.30;;;21.60;99.90;;;;;;4963622;28;20431;-89
2022/06/28 18:40:52;;;;;;;5.57;5.17;;;21.70;99.90;;;;;;4959269;28;20612;-90
2022/06/28 18:43:20;;;;;;;6.07;5.70;;;21.80;99.90;;;;;;4940213;29;20971;-90
2022/06/28 18:45:56;;;;;;;5.50;5.20;;;22.70;99.90;;;;;;4974694;28;20482;-87
2022/06/28 18:48:22;;;;;;;5.70;5.30;;;21.20;99.90;;;;;;4954971;28;20434;-88
2022/06/28 18:50:48;;;;;;;6.17;5.70;;;21.50;99.90;;;;;;4952323;28;20454;-91
2022/06/28 18:53:17;;;;;;;6.27;5.87;;;22.60;99.90;;;;;;4953274;28;20187;-89
2022/06/28 18:55:42;;;;;;;6.07;5.57;;;22.30;99.90;;;;;;4945096;28;20443;-89
2022/06/28 18:58:08;;;;;;;6.03;5.53;;;21.40;99.90;;;;;;4952273;28;20430;-88
2022/06/28 19:00:35;;;;;;;6.30;5.90;;;21.30;99.90;;;;;;4952768;28;20214;-90
2022/06/28 19:03:14;;;;;;;6.50;6.07;;;21.00;99.90;;;;;;4978746;28;20207;-89
2022/06/28 19:05:43;;;;;;;8.10;6.07;;;21.40;99.90;;;;;;4958986;28;20457;-88
2022/06/28 19:08:11;;;;;;;6.17;5.77;;;21.30;99.90;;;;;;4959750;28;20455;-88
2022/06/28 19:10:38;;;;;;;5.40;5.10;;;21.60;99.90;;;;;;4958179;28;20175;-86
2022/06/28 19:13:05;;;;;;;7.70;7.17;;;21.20;99.90;;;;;;4954445;28;20476;-88
2022/06/28 19:15:32;;;;;;;8.10;7.60;;;21.20;99.90;;;;;;4960452;28;20514;-88
2022/06/28 19:17:59;;;;;;;7.73;7.13;;;21.40;99.90;;;;;;4956320;28;20442;-87
2022/06/28 19:20:25;;;;;;;23.83;21.90;;;21.50;99.90;;;;;;4964648;28;20486;-88
2022/06/28 19:22:53;;;;;;;6.73;6.30;;;20.70;99.90;;;;;;4965420;28;20505;-89
2022/06/28 19:25:22;;;;;;;6.20;5.90;;;20.70;99.90;;;;;;4955454;28;20494;-89
2022/06/28 19:27:51;;;;;;;6.30;6.00;;;20.50;99.90;;;;;;4950901;28;20454;-87
2022/06/28 19:30:19;;;;;;;8.37;7.67;;;20.30;99.90;;;;;;4951277;28;21103;-89
2022/06/28 19:33:05;;;;;;;19.90;17.90;;;20.40;99.90;;;;;;4961519;28;20435;-96
2022/06/28 19:35:31;;;;;;;9.40;7.63;;;20.30;99.90;;;;;;4948390;28;20442;-90
2022/06/28 19:38:45;;;;;;;6.27;5.90;;;20.70;99.90;;;;;;4948341;28;20438;-89
2022/06/28 19:41:11;;;;;;;6.90;6.40;;;20.30;99.90;;;;;;4947208;28;20202;-92
2022/06/28 19:43:36;;;;;;;6.30;5.90;;;20.00;99.90;;;;;;4949687;28;20451;-90
2022/06/28 19:46:02;;;;;;;6.30;5.90;;;20.20;99.90;;;;;;4945435;28;20812;-92
2022/06/28 19:48:28;;;;;;;6.93;6.53;;;19.90;99.90;;;;;;4955096;28;20210;-93
2022/06/28 19:51:06;;;;;;;6.33;5.93;;;20.00;99.90;;;;;;4953206;28;20187;-92
2022/06/28 19:53:32;;;;;;;6.30;5.87;;;20.30;99.90;;;;;;4952829;28;20520;-87
2022/06/28 19:55:59;;;;;;;6.30;5.70;;;20.90;99.90;;;;;;4952493;28;20187;-90
2022/06/28 19:58:29;;;;;;;5.67;5.37;;;20.20;99.90;;;;;;4946815;28;20188;-94
2022/06/28 20:01:01;;;;;;;6.77;6.37;;;20.20;99.90;;;;;;4950677;28;20443;-92
2022/06/28 20:03:27;;;;;;;6.60;6.20;;;20.20;99.90;;;;;;4949441;28;20549;-93
2022/06/28 20:05:53;;;;;;;6.53;6.13;;;20.20;99.90;;;;;;4942801;28;20996;-91
2022/06/28 20:08:19;;;;;;;6.57;6.17;;;20.20;99.90;;;;;;4946119;28;20198;-90
2022/06/28 20:10:44;;;;;;;6.47;6.07;;;20.30;99.90;;;;;;4945658;28;20178;-91
2022/06/28 20:13:12;;;;;;;6.10;5.70;;;20.90;99.90;;;;;;4946987;28;20824;-90
2022/06/28 20:15:38;;;;;;;5.97;5.47;;;20.30;99.90;;;;;;4945834;28;20266;-91
2022/06/28 20:18:04;;;;;;;6.70;6.10;;;20.70;99.90;;;;;;4947560;28;20525;-94
2022/06/28 20:20:31;;;;;;;5.80;5.40;;;20.30;99.90;;;;;;4947012;28;20221;-92
2022/06/28 20:22:56;;;;;;;6.23;5.63;;;20.10;99.90;;;;;;4951927;28;20246;-91
2022/06/28 20:25:22;;;;;;;7.57;6.70;;;20.40;99.90;;;;;;4963786;28;20446;-92
2022/06/28 20:27:51;;;;;;;5.60;5.20;;;20.20;99.90;;;;;;4955605;28;20187;-91
2022/06/28 20:30:19;;;;;;;7.10;6.57;;;20.00;99.90;;;;;;4958024;28;20199;-92
2022/06/28 20:32:47;;;;;;;7.43;6.07;;;20.10;99.90;;;;;;4961754;28;20442;-92
2022/06/28 20:35:12;;;;;;;6.20;5.70;;;19.90;99.90;;;;;;4951383;28;20956;-95
2022/06/28 20:37:56;;;;;;;6.83;6.27;;;19.90;99.90;;;;;;4958669;28;20442;-95
2022/06/28 22:22:01;;;;;;;7.83;7.23;;;18.30;99.90;;;;;;4994970;28;21017;-91
2022/06/28 22:24:26;;;;;;;8.00;7.30;;;18.50;99.90;;;;;;5013347;28;20475;-93
2022/06/28 22:26:52;;;;;;;8.33;7.67;;;17.90;99.90;;;;;;4989334;28;20453;-92
2022/06/28 22:29:18;;;;;;;8.70;8.10;;;18.20;99.90;;;;;;5008111;28;20238;-93
2022/06/28 22:31:46;;;;;;;7.60;7.10;;;18.20;99.90;;;;;;5004809;28;20448;-92
2022/06/28 22:34:17;;;;;;;6.80;6.17;;;18.10;99.90;;;;;;5009509;28;20457;-91
2022/06/28 22:37:29;;;;;;;7.13;6.63;;;18.50;99.90;;;;;;5004992;28;20477;-92
2022/06/28 22:39:54;;;;;;;7.47;6.87;;;18.50;99.90;;;;;;5004606;28;20437;-92